createdAt,value
2022-11-19T00:00:52.885Z,97669.59
2022-11-19T00:03:19.733Z,97666.03
2022-11-19T00:05:46.527Z,97669.47
2022-11-19T00:08:13.356Z,97670.97
2022-11-19T00:10:39.743Z,97670.25
2022-11-19T00:13:06.510Z,97674.56
2022-11-19T00:15:36.025Z,97675.47
2022-11-19T00:18:02.652Z,97674.88
2022-11-19T00:20:28.977Z,97672.81
2022-11-19T00:22:57.026Z,97668.13
2022-11-19T00:25:23.651Z,97672.22
2022-11-19T00:27:50.295Z,97675.69
2022-11-19T00:30:40.940Z,97677.66
2022-11-19T00:33:03.117Z,97676.81
2022-11-19T00:35:29.488Z,97679.63
2022-11-19T00:37:55.827Z,97681.84
2022-11-19T00:40:22.198Z,97674.44
2022-11-19T00:43:08.753Z,97675.38
2022-11-19T00:45:35.112Z,97676.19
2022-11-19T00:48:01.444Z,97681.94
2022-11-19T00:50:27.833Z,97682.16
2022-11-19T00:52:54.145Z,97680.53
2022-11-19T00:55:20.477Z,97681.88
2022-11-19T00:57:46.800Z,97686.44
2022-11-19T01:00:13.599Z,97687.53
2022-11-19T01:02:39.931Z,97691.44
2022-11-19T01:05:06.512Z,97691.06
2022-11-19T01:07:32.903Z,97697.28
2022-11-19T01:09:59.311Z,97697.09
2022-11-19T01:12:25.634Z,97696.81
2022-11-19T01:14:51.988Z,97699.53
2022-11-19T01:17:18.318Z,97700.63
2022-11-19T01:19:44.655Z,97693.94
2022-11-19T01:22:10.987Z,97690.09
2022-11-19T01:24:37.303Z,97694.38
2022-11-19T01:27:03.625Z,97694.88
2022-11-19T01:29:30.177Z,97695.63
2022-11-19T01:31:56.544Z,97694.13
2022-11-19T01:34:22.881Z,97689.47
2022-11-19T01:36:49.245Z,97687.41
2022-11-19T01:39:15.575Z,97692.72
2022-11-19T01:41:41.951Z,97692.97
2022-11-19T01:44:08.280Z,97696.78
2022-11-19T01:46:35.348Z,97700.03
2022-11-19T01:49:12.530Z,97708.16
2022-11-19T01:51:39.809Z,97710.28
2022-11-19T01:54:10.925Z,97712.06
2022-11-19T01:56:37.322Z,97710.88
2022-11-19T01:59:04.268Z,97720.38
2022-11-19T02:01:31.050Z,97711.38
2022-11-19T02:03:58.278Z,97717.28
2022-11-19T02:06:24.622Z,97719.72
2022-11-19T02:08:51.493Z,97715.88
2022-11-19T02:11:36.726Z,97712.63
2022-11-19T02:14:03.026Z,97722.47
2022-11-19T02:16:41.590Z,97719.91
2022-11-19T02:19:07.874Z,97721.81
2022-11-19T02:21:37.166Z,97721.13
2022-11-19T02:24:16.827Z,97724.44
2022-11-19T02:27:02.006Z,97724.34
2022-11-19T02:29:31.702Z,97706.06
2022-11-19T02:31:58.007Z,97723.66
2022-11-19T02:34:31.522Z,97729.50
2022-11-19T02:36:58.551Z,97734.03
2022-11-19T02:39:27.867Z,97743.34
2022-11-19T02:41:56.073Z,97746.84
2022-11-19T02:44:42.887Z,97742.25
2022-11-19T02:47:13.137Z,97742.78
2022-11-19T02:49:41.824Z,97742.78
2022-11-19T02:52:08.199Z,97734.91
2022-11-19T02:54:34.536Z,97731.25
2022-11-19T02:57:01.065Z,97737.09
2022-11-19T02:59:54.833Z,97746.00
2022-11-19T03:02:40.005Z,97740.63
2022-11-19T03:05:07.241Z,97736.06
2022-11-19T03:07:33.595Z,97733.25
2022-11-19T03:10:00.410Z,97745.31
2022-11-19T03:12:45.215Z,97738.19
2022-11-19T03:15:41.772Z,97752.03
2022-11-19T03:18:19.273Z,97746.91
2022-11-19T03:20:47.078Z,97746.47
2022-11-19T03:23:19.095Z,97749.28
2022-11-19T03:25:47.321Z,97757.78
2022-11-19T03:28:15.149Z,97757.25
2022-11-19T03:30:42.031Z,97762.72
2022-11-19T03:33:20.348Z,97757.84
2022-11-19T03:35:47.658Z,97758.38
2022-11-19T03:38:18.815Z,97752.44
2022-11-19T03:40:45.163Z,97751.41
2022-11-19T03:43:11.641Z,97752.25
2022-11-19T03:45:39.331Z,97753.88
2022-11-19T03:48:05.771Z,97751.47
2022-11-19T03:50:37.970Z,97757.19
2022-11-19T03:53:04.792Z,97760.78
2022-11-19T03:55:32.804Z,97762.63
2022-11-19T03:58:03.087Z,97768.09
2022-11-19T04:00:29.429Z,97768.66
2022-11-19T04:02:55.870Z,97763.81
2022-11-19T04:05:22.188Z,97769.00
2022-11-19T04:07:48.510Z,97757.59
2022-11-19T04:10:15.044Z,97757.13
2022-11-19T04:12:41.370Z,97761.19
2022-11-19T04:15:08.066Z,97761.72
2022-11-19T04:17:34.401Z,97760.09
2022-11-19T04:20:00.807Z,97759.56
2022-11-19T04:22:27.133Z,97763.09
2022-11-19T04:24:53.497Z,97773.97
2022-11-19T04:27:19.857Z,97778.63
2022-11-19T04:29:46.169Z,97775.69
2022-11-19T04:32:12.509Z,97778.69
2022-11-19T04:34:38.853Z,97781.13
2022-11-19T04:37:05.199Z,97788.97
2022-11-19T04:39:31.534Z,97785.94
2022-11-19T04:41:58.130Z,97792.53
2022-11-19T04:44:24.449Z,97789.56
2022-11-19T04:46:50.801Z,97790.94
2022-11-19T04:49:17.339Z,97790.69
2022-11-19T04:51:43.800Z,97793.75
2022-11-19T04:54:10.139Z,97795.34
2022-11-19T04:56:36.793Z,97793.16
2022-11-19T04:59:03.518Z,97795.34
2022-11-19T05:01:29.889Z,97793.47
2022-11-19T05:03:56.227Z,97788.88
2022-11-19T05:06:22.577Z,97796.19
2022-11-19T05:08:48.894Z,97800.00
2022-11-19T05:11:15.234Z,97801.84
2022-11-19T05:13:41.546Z,97795.38
2022-11-19T05:16:07.946Z,97801.63
2022-11-19T05:18:34.269Z,97801.66
2022-11-19T05:21:00.643Z,97807.59
2022-11-19T05:23:27.057Z,97810.63
2022-11-19T05:25:53.474Z,97819.56
2022-11-19T05:28:24.813Z,97816.06
2022-11-19T05:30:59.486Z,97819.84
2022-11-19T05:33:28.676Z,97824.44
2022-11-19T05:35:57.484Z,97820.66
2022-11-19T05:38:23.811Z,97821.47
2022-11-19T05:40:50.123Z,97836.41
2022-11-19T05:43:16.463Z,97831.28
2022-11-19T05:45:42.772Z,97841.03
2022-11-19T05:48:09.123Z,97837.78
2022-11-19T05:50:35.518Z,97846.47
2022-11-19T05:53:01.973Z,97844.00
2022-11-19T05:55:28.294Z,97848.63
2022-11-19T05:57:54.637Z,97845.94
2022-11-19T06:00:20.974Z,97848.09
2022-11-19T06:02:47.397Z,97850.78
2022-11-19T06:05:13.767Z,97847.53
2022-11-19T06:07:40.185Z,97859.47
2022-11-19T06:10:06.806Z,97855.69
2022-11-19T06:12:33.128Z,97852.69
2022-11-19T06:15:00.687Z,97848.38
2022-11-19T06:17:27.039Z,97856.22
2022-11-19T06:19:53.355Z,97855.41
2022-11-19T06:22:19.695Z,97864.06
2022-11-19T06:24:46.012Z,97852.72
2022-11-19T06:27:12.335Z,97853.50
2022-11-19T06:29:38.644Z,97854.28
2022-11-19T06:32:04.973Z,97853.47
2022-11-19T06:34:31.286Z,97856.75
2022-11-19T06:36:58.738Z,97859.72
2022-11-19T06:39:25.057Z,97864.84
2022-11-19T06:41:51.433Z,97864.81
2022-11-19T06:44:17.752Z,97867.78
2022-11-19T06:46:44.096Z,97866.97
2022-11-19T06:49:13.196Z,97873.50
2022-11-19T06:51:41.881Z,97872.69
2022-11-19T06:54:08.222Z,97880.28
2022-11-19T06:56:34.534Z,97878.66
2022-11-19T06:59:00.953Z,97875.69
2022-11-19T07:01:27.341Z,97884.34
2022-11-19T07:03:53.776Z,97892.50
2022-11-19T07:06:20.125Z,97902.50
2022-11-19T07:08:46.450Z,97904.13
2022-11-19T07:11:28.128Z,97904.41
2022-11-19T07:13:58.116Z,97906.31
2022-11-19T07:16:25.044Z,97912.56
2022-11-19T07:18:51.695Z,97913.66
2022-11-19T07:21:18.022Z,97919.91
2022-11-19T07:23:44.366Z,97924.28
2022-11-19T07:26:10.690Z,97919.66
2022-11-19T07:28:37.027Z,97929.41
2022-11-19T07:31:06.737Z,97930.50
2022-11-19T07:33:33.658Z,97924.81
2022-11-19T07:36:00.056Z,97940.00
2022-11-19T07:38:26.404Z,97941.34
2022-11-19T07:40:53.584Z,97943.00
2022-11-19T07:43:20.001Z,97941.94
2022-11-19T07:45:46.327Z,97947.38
2022-11-19T07:48:12.699Z,97956.03
2022-11-19T07:50:40.435Z,97952.78
2022-11-19T07:53:10.184Z,97954.66
2022-11-19T07:55:36.764Z,97953.34
2022-11-19T07:58:03.094Z,97949.78
2022-11-19T08:00:29.484Z,97946.81
2022-11-19T08:02:55.865Z,97951.69
2022-11-19T08:05:22.182Z,97956.56
2022-11-19T08:07:48.534Z,97955.75
2022-11-19T08:10:14.990Z,97953.00
2022-11-19T08:12:41.359Z,97957.59
2022-11-19T08:15:08.123Z,97963.84
2022-11-19T08:17:53.051Z,97968.69
2022-11-19T08:20:19.373Z,97959.66
2022-11-19T08:22:45.714Z,97956.31
2022-11-19T08:25:12.047Z,97952.25
2022-11-19T08:27:38.493Z,97949.16
2022-11-19T08:30:05.036Z,97951.84
2022-11-19T08:32:31.391Z,97950.09
2022-11-19T08:34:57.756Z,97950.03
2022-11-19T08:37:24.114Z,97958.97
2022-11-19T08:39:51.658Z,97951.59
2022-11-19T08:42:36.804Z,97949.88
2022-11-19T08:45:03.682Z,97934.66
2022-11-19T08:47:30.033Z,97948.25
2022-11-19T08:49:56.553Z,97945.50
2022-11-19T08:52:22.885Z,97944.53
2022-11-19T08:54:49.212Z,97943.31
2022-11-19T08:57:15.643Z,97943.88
2022-11-19T08:59:41.966Z,97953.50
2022-11-19T09:02:09.972Z,97950.03
2022-11-19T09:04:37.062Z,97959.56
2022-11-19T09:07:03.585Z,97962.84
2022-11-19T09:09:29.927Z,97964.72
2022-11-19T09:11:56.739Z,97957.31
2022-11-19T09:14:23.058Z,97960.47
2022-11-19T09:16:49.408Z,97963.22
2022-11-19T09:19:15.733Z,97972.28
2022-11-19T09:21:42.053Z,97972.19
2022-11-19T09:24:08.377Z,97961.81
2022-11-19T09:26:34.701Z,97973.44
2022-11-19T09:29:01.063Z,97969.28
2022-11-19T09:31:27.416Z,97967.69
2022-11-19T09:33:53.840Z,97961.09
2022-11-19T09:36:20.231Z,97958.19
2022-11-19T09:38:46.871Z,97954.75
2022-11-19T09:41:32.666Z,97960.09
2022-11-19T09:44:02.326Z,97955.16
2022-11-19T09:46:46.581Z,97963.22
2022-11-19T09:49:18.774Z,97958.75
2022-11-19T09:51:46.470Z,97956.94
2022-11-19T09:54:14.916Z,97964.22
2022-11-19T09:56:44.986Z,97954.78
2022-11-19T09:59:31.605Z,97953.00
2022-11-19T10:01:57.922Z,97960.28
2022-11-19T10:04:25.055Z,97964.66
2022-11-19T10:07:11.272Z,97972.47
2022-11-19T10:09:55.143Z,97959.97
2022-11-19T10:12:30.578Z,97951.44
2022-11-19T10:14:56.923Z,97947.53
2022-11-19T10:17:55.591Z,97941.06
2022-11-19T10:20:21.905Z,97942.81
2022-11-19T10:22:57.744Z,97946.34
2022-11-19T10:25:26.276Z,97947.34
2022-11-19T10:27:55.093Z,97950.88
2022-11-19T10:30:22.597Z,97957.56
2022-11-19T10:32:58.901Z,97948.63
2022-11-19T10:35:32.319Z,97957.28
2022-11-19T10:37:59.766Z,97947.81
2022-11-19T10:40:36.983Z,97936.91
2022-11-19T10:43:23.601Z,97932.03
2022-11-19T10:45:50.196Z,97936.81
2022-11-19T10:48:21.043Z,97932.00
2022-11-19T10:50:47.422Z,97916.47
2022-11-19T10:53:13.721Z,97930.53
2022-11-19T10:55:41.254Z,97928.84
2022-11-19T10:58:10.714Z,97932.31
2022-11-19T11:00:37.648Z,97925.56
2022-11-19T11:03:04.226Z,97914.53
2022-11-19T11:05:30.789Z,97909.63
2022-11-19T11:07:58.028Z,97915.19
2022-11-19T11:10:34.694Z,97923.25
2022-11-19T11:13:29.230Z,97894.38
2022-11-19T11:15:55.557Z,97917.91
2022-11-19T11:18:24.739Z,97903.16
2022-11-19T11:20:51.123Z,97901.53
2022-11-19T11:23:18.702Z,97917.19
2022-11-19T11:26:00.640Z,97902.38
2022-11-19T11:28:26.970Z,97887.50
2022-11-19T11:30:56.397Z,97901.75
2022-11-19T11:33:22.712Z,97894.84
2022-11-19T11:35:49.064Z,97895.78
2022-11-19T11:38:15.427Z,97885.25
2022-11-19T11:40:41.745Z,97884.56
2022-11-19T11:43:14.442Z,97877.78
2022-11-19T11:45:40.760Z,97878.28
2022-11-19T11:48:18.756Z,97872.09
2022-11-19T11:50:45.576Z,97860.06
2022-11-19T11:53:13.593Z,97865.63
2022-11-19T11:55:39.962Z,97863.00
2022-11-19T11:58:22.852Z,97867.94
2022-11-19T12:00:49.175Z,97859.84
2022-11-19T12:03:16.461Z,97841.69
2022-11-19T12:05:44.819Z,97851.44
2022-11-19T12:08:29.986Z,97869.22
2022-11-19T12:10:59.661Z,97873.13
2022-11-19T12:13:30.563Z,97849.03
2022-11-19T12:15:56.835Z,97856.59
2022-11-19T12:18:42.050Z,97849.88
2022-11-19T12:21:12.144Z,97854.25
2022-11-19T12:23:38.612Z,97844.91
2022-11-19T12:26:12.793Z,97848.22
2022-11-19T12:28:45.239Z,97856.53
2022-11-19T12:31:11.522Z,97876.63
2022-11-19T12:33:40.589Z,97864.53
2022-11-19T12:36:25.752Z,97874.69
2022-11-19T12:38:52.079Z,97880.66
2022-11-19T12:41:22.958Z,97887.59
2022-11-19T12:43:56.522Z,97897.78
2022-11-19T12:46:38.232Z,97887.56
2022-11-19T12:49:23.469Z,97872.66
2022-11-19T12:51:59.951Z,97883.25
2022-11-19T12:54:36.017Z,97888.78
2022-11-19T12:57:17.105Z,97900.56
2022-11-19T12:59:46.559Z,97916.34
2022-11-19T13:02:16.374Z,97910.34
2022-11-19T13:05:13.972Z,97913.66
2022-11-19T13:07:42.725Z,97912.78
2022-11-19T13:10:16.661Z,97908.25
2022-11-19T13:12:43.829Z,97908.88
2022-11-19T13:15:28.977Z,97913.19
2022-11-19T13:17:55.669Z,97898.41
2022-11-19T13:20:21.970Z,97888.78
2022-11-19T13:22:48.347Z,97887.03
2022-11-19T13:25:20.859Z,97889.47
2022-11-19T13:27:47.365Z,97887.13
2022-11-19T13:30:17.811Z,97880.13
2022-11-19T13:32:50.337Z,97866.13
2022-11-19T13:35:20.873Z,97876.75
2022-11-19T13:37:58.023Z,97874.53
2022-11-19T13:40:33.997Z,97865.31
2022-11-19T13:43:34.445Z,97879.75
2022-11-19T13:46:05.668Z,97869.25
2022-11-19T13:48:33.367Z,97876.56
2022-11-19T13:51:00.620Z,97883.88
2022-11-19T13:53:34.235Z,97865.25
2022-11-19T13:56:02.992Z,97869.59
2022-11-19T13:58:29.301Z,97878.94
2022-11-19T14:01:06.811Z,97875.19
2022-11-19T14:03:56.415Z,97862.94
2022-11-19T14:06:25.822Z,97875.00
2022-11-19T14:09:01.286Z,97878.56
2022-11-19T14:11:30.355Z,97881.03
2022-11-19T14:13:59.847Z,97880.28
2022-11-19T14:16:51.034Z,97869.28
2022-11-19T14:19:36.374Z,97872.34
2022-11-19T14:22:41.374Z,97874.41
2022-11-19T14:25:26.799Z,97872.56
2022-11-19T14:27:53.123Z,97876.91
2022-11-19T14:30:20.027Z,97874.94
2022-11-19T14:32:50.653Z,97873.97
2022-11-19T14:35:26.301Z,97877.53
2022-11-19T14:37:56.894Z,97874.28
2022-11-19T14:40:24.188Z,97878.59
2022-11-19T14:43:18.531Z,97887.41
2022-11-19T14:46:03.369Z,97876.91
2022-11-19T14:48:33.495Z,97878.00
2022-11-19T14:51:05.928Z,97874.72
2022-11-19T14:53:32.303Z,97873.38
2022-11-19T14:55:58.649Z,97877.75
2022-11-19T14:58:24.969Z,97872.03
2022-11-19T15:00:54.328Z,97878.69
2022-11-19T15:03:26.952Z,97875.88
2022-11-19T15:05:53.434Z,97875.41
2022-11-19T15:08:19.738Z,97875.38
2022-11-19T15:10:49.161Z,97873.69
2022-11-19T15:13:17.029Z,97876.09
2022-11-19T15:15:43.478Z,97879.47
2022-11-19T15:18:15.169Z,97877.59
2022-11-19T15:20:53.799Z,97879.56
2022-11-19T15:23:26.124Z,97870.31
2022-11-19T15:26:01.810Z,97888.34
2022-11-19T15:28:47.085Z,97873.91
2022-11-19T15:31:13.400Z,97867.31
2022-11-19T15:33:45.848Z,97866.59
2022-11-19T15:36:26.379Z,97869.22
2022-11-19T15:38:54.908Z,97867.31
2022-11-19T15:41:22.357Z,97870.97
2022-11-19T15:43:51.696Z,97863.38
2022-11-19T15:46:30.206Z,97864.31
2022-11-19T15:49:15.640Z,97848.59
2022-11-19T15:52:05.286Z,97848.69
2022-11-19T15:54:32.323Z,97837.56
2022-11-19T15:57:01.793Z,97843.88
2022-11-19T15:59:28.277Z,97844.13
2022-11-19T16:02:01.572Z,97840.56
2022-11-19T16:04:29.131Z,97845.06
2022-11-19T16:06:55.859Z,97844.84
2022-11-19T16:09:23.661Z,97851.31
2022-11-19T16:12:08.743Z,97840.75
2022-11-19T16:14:53.646Z,97840.94
2022-11-19T16:17:35.795Z,97842.38
2022-11-19T16:20:10.982Z,97839.91
2022-11-19T16:22:44.133Z,97850.78
2022-11-19T16:25:11.637Z,97846.38
2022-11-19T16:27:39.399Z,97845.00
2022-11-19T16:30:06.093Z,97848.28
2022-11-19T16:32:32.422Z,97845.25
2022-11-19T16:35:11.614Z,97856.75
2022-11-19T16:37:37.935Z,97860.06
2022-11-19T16:40:04.389Z,97865.63
2022-11-19T16:42:32.611Z,97856.16
2022-11-19T16:45:09.803Z,97859.88
2022-11-19T16:47:39.489Z,97860.13
2022-11-19T16:50:06.798Z,97856.81
2022-11-19T16:52:33.146Z,97859.31
2022-11-19T16:54:59.705Z,97854.94
2022-11-19T16:57:26.450Z,97861.06
2022-11-19T16:59:53.715Z,97855.44
2022-11-19T17:02:20.731Z,97856.75
2022-11-19T17:04:48.229Z,97856.72
2022-11-19T17:07:14.692Z,97851.28
2022-11-19T17:09:42.318Z,97862.50
2022-11-19T17:12:25.099Z,97863.00
2022-11-19T17:14:52.689Z,97865.16
2022-11-19T17:17:28.245Z,97856.25
2022-11-19T17:19:56.449Z,97851.94
2022-11-19T17:22:23.617Z,97849.22
2022-11-19T17:24:50.006Z,97850.84
2022-11-19T17:27:24.235Z,97856.59
2022-11-19T17:29:50.972Z,97848.38
2022-11-19T17:32:17.289Z,97844.00
2022-11-19T17:34:47.061Z,97847.00
2022-11-19T17:37:13.380Z,97845.69
2022-11-19T17:39:39.719Z,97844.91
2022-11-19T17:42:24.825Z,97841.63
2022-11-19T17:44:51.592Z,97854.84
2022-11-19T17:47:23.134Z,97861.41
2022-11-19T17:49:50.346Z,97850.03
2022-11-19T17:52:21.778Z,97857.38
2022-11-19T17:54:48.687Z,97850.47
2022-11-19T17:57:15.059Z,97854.59
2022-11-19T17:59:41.462Z,97865.72
2022-11-19T18:02:12.549Z,97865.84
2022-11-19T18:04:38.932Z,97859.06
2022-11-19T18:07:05.337Z,97857.69
2022-11-19T18:09:34.926Z,97861.78
2022-11-19T18:12:01.513Z,97866.06
2022-11-19T18:14:27.835Z,97865.50
2022-11-19T18:16:54.167Z,97866.84
2022-11-19T18:19:25.034Z,97868.50
2022-11-19T18:21:51.911Z,97876.38
2022-11-19T18:24:18.246Z,97877.72
2022-11-19T18:26:44.588Z,97873.66
2022-11-19T18:29:10.990Z,97873.66
2022-11-19T18:31:47.360Z,97875.03
2022-11-19T18:34:17.972Z,97870.72
2022-11-19T18:36:44.308Z,97861.75
2022-11-19T18:39:10.691Z,97868.28
2022-11-19T18:41:37.010Z,97865.31
2022-11-19T18:44:22.264Z,97860.97
2022-11-19T18:46:48.596Z,97858.56
2022-11-19T18:49:14.924Z,97864.22
2022-11-19T18:51:42.985Z,97868.94
2022-11-19T18:54:11.069Z,97870.78
2022-11-19T18:56:37.399Z,97863.19
2022-11-19T18:59:05.074Z,97859.38
2022-11-19T19:01:31.699Z,97864.28
2022-11-19T19:03:58.069Z,97870.56
2022-11-19T19:06:25.481Z,97866.44
2022-11-19T19:08:51.938Z,97867.53
2022-11-19T19:11:36.982Z,97874.31
2022-11-19T19:14:04.084Z,97874.63
2022-11-19T19:16:30.763Z,97870.81
2022-11-19T19:18:57.456Z,97877.34
2022-11-19T19:21:23.884Z,97868.66
2022-11-19T19:23:50.461Z,97873.00
2022-11-19T19:26:17.105Z,97872.72
2022-11-19T19:28:43.454Z,97877.34
2022-11-19T19:31:12.405Z,97881.13
2022-11-19T19:33:42.789Z,97880.59
2022-11-19T19:36:09.226Z,97879.81
2022-11-19T19:38:35.571Z,97881.41
2022-11-19T19:41:05.425Z,97873.81
2022-11-19T19:43:31.760Z,97874.63
2022-11-19T19:46:05.187Z,97880.59
2022-11-19T19:48:31.545Z,97871.09
2022-11-19T19:50:57.878Z,97869.19
2022-11-19T19:53:24.213Z,97870.28
2022-11-19T19:55:50.543Z,97868.66
2022-11-19T19:58:16.862Z,97870.28
2022-11-19T20:00:43.305Z,97874.34
2022-11-19T20:03:09.622Z,97872.72
2022-11-19T20:05:35.958Z,97872.50
2022-11-19T20:08:02.544Z,97870.31
2022-11-19T20:10:28.869Z,97864.34
2022-11-19T20:13:13.917Z,97869.22
2022-11-19T20:15:41.151Z,97869.22
2022-11-19T20:18:07.483Z,97864.34
2022-11-19T20:20:33.809Z,97868.69
2022-11-19T20:23:00.169Z,97877.63
2022-11-19T20:25:26.734Z,97867.34
2022-11-19T20:27:53.056Z,97875.19
2022-11-19T20:30:19.394Z,97866.25
2022-11-19T20:32:46.021Z,97860.03
2022-11-19T20:35:12.387Z,97856.19
2022-11-19T20:37:38.721Z,97861.63
2022-11-19T20:40:05.422Z,97855.41
2022-11-19T20:42:50.632Z,97859.47
2022-11-19T20:45:17.043Z,97858.41
2022-11-19T20:47:43.455Z,97853.78
2022-11-19T20:50:09.786Z,97848.34
2022-11-19T20:52:36.215Z,97851.06
2022-11-19T20:55:06.629Z,97843.19
2022-11-19T20:57:33.344Z,97848.34
2022-11-19T21:00:00.344Z,97845.91
2022-11-19T21:02:26.766Z,97845.06
2022-11-19T21:04:53.131Z,97842.09
2022-11-19T21:07:19.515Z,97848.88
2022-11-19T21:09:45.980Z,97845.66
2022-11-19T21:12:12.324Z,97846.72
2022-11-19T21:14:38.665Z,97846.19
2022-11-19T21:17:05.006Z,97840.50
2022-11-19T21:19:31.323Z,97848.59
2022-11-19T21:21:58.101Z,97846.44
2022-11-19T21:24:24.600Z,97841.28
2022-11-19T21:26:50.961Z,97836.66
2022-11-19T21:29:17.331Z,97844.81
2022-11-19T21:31:48.589Z,97839.94
2022-11-19T21:34:15.765Z,97844.53
2022-11-19T21:36:42.268Z,97840.75
2022-11-19T21:39:08.681Z,97836.94
2022-11-19T21:41:35.145Z,97833.69
2022-11-19T21:44:01.737Z,97835.03
2022-11-19T21:46:28.087Z,97834.78
2022-11-19T21:48:54.436Z,97830.44
2022-11-19T21:51:24.577Z,97829.13
2022-11-19T21:53:53.116Z,97825.31
2022-11-19T21:56:19.450Z,97829.66
2022-11-19T21:58:45.772Z,97828.56
2022-11-19T22:01:12.279Z,97822.59
2022-11-19T22:03:38.653Z,97827.19
2022-11-19T22:06:06.012Z,97824.72
2022-11-19T22:08:32.937Z,97822.03
2022-11-19T22:10:59.470Z,97825.84
2022-11-19T22:13:25.878Z,97823.16
2022-11-19T22:15:58.913Z,97820.16
2022-11-19T22:18:25.245Z,97822.06
2022-11-19T22:20:59.632Z,97818.78
2022-11-19T22:23:25.963Z,97830.19
2022-11-19T22:25:52.311Z,97826.94
2022-11-19T22:28:18.626Z,97824.78
2022-11-19T22:30:47.608Z,97824.50
2022-11-19T22:33:13.936Z,97828.56
2022-11-19T22:35:40.266Z,97831.84
2022-11-19T22:38:06.599Z,97834.53
2022-11-19T22:40:32.932Z,97831.81
2022-11-19T22:42:59.246Z,97821.78
2022-11-19T22:45:25.574Z,97830.19
2022-11-19T22:47:51.912Z,97828.56
2022-11-19T22:50:18.225Z,97835.06
2022-11-19T22:52:44.583Z,97829.91
2022-11-19T22:55:11.026Z,97827.47
2022-11-19T22:57:37.378Z,97828.28
2022-11-19T23:00:06.258Z,97827.75
2022-11-19T23:02:32.614Z,97831.28
2022-11-19T23:04:58.961Z,97826.41
2022-11-19T23:07:25.378Z,97824.25
2022-11-19T23:09:51.740Z,97835.06
2022-11-19T23:12:36.900Z,97820.44
2022-11-19T23:15:03.262Z,97821.25
2022-11-19T23:17:29.589Z,97804.97
2022-11-19T23:19:59.142Z,97810.41
2022-11-19T23:22:28.136Z,97811.19
2022-11-19T23:24:54.462Z,97805.00
2022-11-19T23:27:22.299Z,97803.34
2022-11-19T23:29:48.769Z,97803.09
2022-11-19T23:32:15.110Z,97800.91
2022-11-19T23:34:41.436Z,97803.09
2022-11-19T23:37:08.011Z,97790.09
2022-11-19T23:39:34.349Z,97800.34
2022-11-19T23:42:00.697Z,97809.03
2022-11-19T23:44:27.077Z,97793.31
2022-11-19T23:46:53.408Z,97789.50
2022-11-19T23:49:20.066Z,97788.44
2022-11-19T23:51:46.599Z,97790.84
2022-11-19T23:54:13.806Z,97783.56
2022-11-19T23:56:40.262Z,97794.91
2022-11-19T23:59:06.697Z,97787.34
